Time;durP1;ratioP1;P1;durP2;ratioP2;P2;SDS_P1;SDS_P2;PMS_P1;PMS_P2;Temp;Humidity;BMP_temperature;BMP_pressure;BME280_temperature;BME280_humidity;BME280_pressure;Samples;Min_cycle;Max_cycle;Signal;HPM_P1;HPM_P2
2021/01/14 00:00:01;;;;;;;0.40;0.20;;;4.90;99.90;;;;;;5069904;28;20709;-58
2021/01/14 00:02:27;;;;;;;0.40;0.10;;;4.80;99.90;;;;;;5069783;28;20502;-59
2021/01/14 00:04:55;;;;;;;0.32;0.13;;;4.70;99.90;;;;;;5069877;28;20431;-58
2021/01/14 00:07:21;;;;;;;0.40;0.20;;;4.60;99.90;;;;;;5069243;28;20751;-58
2021/01/14 00:09:47;;;;;;;0.40;0.20;;;4.50;99.90;;;;;;5070578;28;20422;-58
2021/01/14 00:12:14;;;;;;;0.30;0.20;;;4.50;99.90;;;;;;5070519;28;20506;-58
2021/01/14 00:14:40;;;;;;;0.40;0.20;;;4.30;99.90;;;;;;5070496;28;20429;-59
2021/01/14 00:17:07;;;;;;;0.30;0.20;;;4.30;99.90;;;;;;5070571;28;20419;-58
2021/01/14 00:19:33;;;;;;;0.40;0.20;;;4.40;99.90;;;;;;5070745;28;20445;-59
2021/01/14 00:22:00;;;;;;;0.50;0.20;;;4.40;99.90;;;;;;5070104;28;20419;-58
2021/01/14 00:24:27;;;;;;;0.40;0.20;;;4.40;99.90;;;;;;5069427;28;20431;-58
2021/01/14 00:26:54;;;;;;;0.40;0.20;;;4.30;99.90;;;;;;5071250;28;20419;-58
2021/01/14 00:29:20;;;;;;;0.40;0.13;;;4.30;99.90;;;;;;5070536;28;20439;-59
2021/01/14 00:31:46;;;;;;;0.40;0.20;;;4.30;99.90;;;;;;5071022;28;20412;-58
2021/01/14 00:34:14;;;;;;;0.40;0.20;;;4.40;99.90;;;;;;5070069;28;20434;-58
2021/01/14 00:39:28;;;;;;;0.55;0.30;;;4.40;99.90;;;;;;5070204;28;20418;-58
2021/01/14 00:41:55;;;;;;;0.40;0.20;;;4.30;99.90;;;;;;5070994;28;20566;-58
2021/01/14 00:44:22;;;;;;;0.40;0.20;;;4.20;99.90;;;;;;5072037;28;20431;-58
2021/01/14 00:46:53;;;;;;;0.40;0.20;;;4.20;99.90;;;;;;5071462;28;20426;-58
2021/01/14 00:49:20;;;;;;;0.70;0.30;;;4.20;99.90;;;;;;5071254;28;20676;-58
2021/01/14 00:51:46;;;;;;;0.70;0.30;;;4.30;99.90;;;;;;5071947;28;20729;-59
2021/01/14 00:54:12;;;;;;;0.60;0.30;;;4.40;99.90;;;;;;5071679;28;20428;-58
2021/01/14 00:56:39;;;;;;;0.50;0.30;;;4.40;99.90;;;;;;5070999;28;20419;-58
2021/01/14 00:59:06;;;;;;;0.60;0.40;;;4.40;99.90;;;;;;5071702;28;20708;-57
2021/01/14 01:01:33;;;;;;;0.60;0.30;;;4.50;99.90;;;;;;5071126;28;20942;-59
2021/01/14 01:04:00;;;;;;;0.60;0.40;;;4.60;99.90;;;;;;5075668;28;20471;-59
2021/01/14 01:06:34;;;;;;;0.70;0.40;;;4.70;99.90;;;;;;5075618;28;20426;-58
2021/01/14 01:09:01;;;;;;;0.50;0.30;;;4.70;99.90;;;;;;5074737;28;20427;-58
2021/01/14 01:11:27;;;;;;;0.70;0.40;;;4.70;99.90;;;;;;5074666;28;20651;-57
2021/01/14 01:13:55;;;;;;;0.80;0.40;;;4.70;99.90;;;;;;5074361;28;20510;-57
2021/01/14 01:16:21;;;;;;;0.70;0.40;;;4.60;99.90;;;;;;5074295;28;20411;-57
2021/01/14 01:18:48;;;;;;;0.70;0.40;;;4.50;99.90;;;;;;5073978;28;20727;-58
2021/01/14 01:21:14;;;;;;;0.60;0.35;;;4.40;99.90;;;;;;5074296;28;20431;-58
2021/01/14 01:23:41;;;;;;;0.70;0.40;;;4.40;99.90;;;;;;5074558;28;20453;-58
2021/01/14 01:26:07;;;;;;;0.70;0.40;;;4.40;99.90;;;;;;5074771;28;20811;-57
2021/01/14 01:28:34;;;;;;;0.80;0.45;;;4.30;99.90;;;;;;5073820;28;20412;-57
2021/01/14 01:31:02;;;;;;;0.80;0.50;;;4.40;99.90;;;;;;5074945;28;20723;-57
2021/01/14 01:33:28;;;;;;;0.70;0.40;;;4.40;99.90;;;;;;5075013;28;20461;-57
2021/01/14 01:35:55;;;;;;;0.80;0.50;;;4.50;99.90;;;;;;5074651;28;20502;-58
2021/01/14 01:38:22;;;;;;;0.70;0.40;;;4.50;99.90;;;;;;5072486;28;20431;-58
2021/01/14 01:40:54;;;;;;;0.70;0.50;;;4.50;99.90;;;;;;5072755;28;20755;-59
2021/01/14 01:43:21;;;;;;;1.00;0.40;;;4.50;99.90;;;;;;5072659;28;20424;-58
2021/01/14 01:45:47;;;;;;;0.80;0.40;;;4.40;99.90;;;;;;5073100;28;20419;-59
2021/01/14 01:48:15;;;;;;;0.80;0.40;;;4.50;99.90;;;;;;5072909;28;20792;-57
2021/01/14 01:50:42;;;;;;;0.60;0.40;;;4.50;99.90;;;;;;5073906;28;20424;-58
2021/01/14 01:53:09;;;;;;;0.90;0.40;;;4.50;99.90;;;;;;5072674;28;20502;-59
2021/01/14 01:55:37;;;;;;;0.80;0.40;;;4.50;99.90;;;;;;5073096;28;20431;-59
2021/01/14 01:58:04;;;;;;;0.70;0.40;;;4.50;99.90;;;;;;5073735;28;20419;-59
2021/01/14 02:00:30;;;;;;;0.90;0.40;;;4.50;99.90;;;;;;5072790;28;20439;-56
2021/01/14 02:02:57;;;;;;;0.82;0.40;;;4.50;99.90;;;;;;5071438;28;20426;-58
2021/01/14 02:05:24;;;;;;;0.65;0.40;;;4.60;99.90;;;;;;5070930;28;20435;-58
2021/01/14 02:08:04;;;;;;;0.60;0.40;;;4.70;99.90;;;;;;5071675;28;20570;-58
2021/01/14 02:10:32;;;;;;;0.70;0.40;;;4.60;99.90;;;;;;5072164;28;20753;-58
2021/01/14 02:13:10;;;;;;;0.70;0.40;;;4.50;99.90;;;;;;5071844;28;20884;-58
2021/01/14 02:15:37;;;;;;;0.70;0.40;;;4.50;99.90;;;;;;5073231;28;20505;-56
2021/01/14 02:18:04;;;;;;;0.70;0.40;;;4.40;99.90;;;;;;5073506;28;20431;-57
2021/01/14 02:20:32;;;;;;;0.70;0.40;;;4.30;99.90;;;;;;5073241;28;20431;-58
2021/01/14 02:23:04;;;;;;;1.40;0.40;;;4.30;99.90;;;;;;5074251;28;20422;-57
2021/01/14 02:25:36;;;;;;;0.60;0.40;;;4.20;99.90;;;;;;5074438;28;20522;-58
2021/01/14 02:28:04;;;;;;;0.70;0.40;;;4.10;99.90;;;;;;5073437;28;20481;-57
2021/01/14 02:30:30;;;;;;;0.77;0.40;;;4.20;99.90;;;;;;5073133;28;20424;-56
2021/01/14 02:32:57;;;;;;;0.70;0.40;;;4.30;99.90;;;;;;5073955;28;20476;-57
2021/01/14 02:35:23;;;;;;;0.60;0.30;;;4.30;99.90;;;;;;5072931;28;20953;-59
2021/01/14 02:37:49;;;;;;;0.60;0.32;;;4.30;99.90;;;;;;5073370;28;20425;-59
2021/01/14 02:40:16;;;;;;;0.80;0.40;;;4.20;99.90;;;;;;5073133;28;20435;-58
2021/01/14 02:42:42;;;;;;;0.57;0.32;;;4.20;99.90;;;;;;5072786;28;20423;-58
2021/01/14 02:45:10;;;;;;;0.70;0.40;;;4.30;99.90;;;;;;5071953;28;20427;-58
2021/01/14 02:47:39;;;;;;;0.60;0.40;;;4.30;99.90;;;;;;5072830;28;20436;-58
2021/01/14 02:50:08;;;;;;;0.47;0.30;;;4.30;99.90;;;;;;5073716;28;20423;-58
2021/01/14 02:52:36;;;;;;;0.80;0.50;;;4.20;99.90;;;;;;5072654;28;20420;-58
2021/01/14 02:55:05;;;;;;;0.50;0.30;;;4.20;99.90;;;;;;5073861;28;20428;-59
2021/01/14 02:57:31;;;;;;;0.60;0.30;;;4.20;99.90;;;;;;5073736;28;20420;-58
2021/01/14 03:00:00;;;;;;;0.70;0.40;;;4.10;99.90;;;;;;5073714;28;20435;-58
2021/01/14 03:02:28;;;;;;;0.60;0.40;;;4.00;99.90;;;;;;5073536;28;20430;-59
2021/01/14 03:04:54;;;;;;;0.75;0.40;;;4.10;99.90;;;;;;5072633;28;20437;-58
2021/01/14 03:07:21;;;;;;;0.67;0.30;;;4.20;99.90;;;;;;5072518;28;20506;-58
2021/01/14 03:09:47;;;;;;;1.00;0.32;;;4.00;99.90;;;;;;5072842;28;20427;-57
2021/01/14 03:12:13;;;;;;;0.70;0.40;;;4.00;99.90;;;;;;5073936;28;20423;-58
2021/01/14 03:14:39;;;;;;;0.70;0.40;;;4.00;99.90;;;;;;5072853;28;20549;-58
2021/01/14 03:17:06;;;;;;;0.70;0.40;;;4.00;99.90;;;;;;5072593;28;20513;-58
2021/01/14 03:19:33;;;;;;;0.70;0.40;;;4.00;99.90;;;;;;5072577;28;20442;-58
2021/01/14 03:22:00;;;;;;;0.60;0.40;;;4.00;99.90;;;;;;5073304;28;20522;-58
2021/01/14 03:24:26;;;;;;;0.70;0.40;;;4.00;99.90;;;;;;5072170;28;20525;-58
2021/01/14 03:26:53;;;;;;;0.70;0.40;;;4.10;99.90;;;;;;5072857;28;20881;-58
2021/01/14 03:29:19;;;;;;;0.60;0.40;;;4.00;99.90;;;;;;5073011;28;20850;-59
2021/01/14 03:31:45;;;;;;;0.60;0.32;;;3.90;99.90;;;;;;5073669;28;20416;-58
2021/01/14 03:34:12;;;;;;;0.60;0.40;;;4.00;99.90;;;;;;5072922;28;20434;-58
2021/01/14 03:36:56;;;;;;;1.50;0.50;;;4.00;99.90;;;;;;5072047;28;20723;-58
2021/01/14 03:39:23;;;;;;;0.60;0.40;;;4.00;99.90;;;;;;5071495;28;20431;-58
2021/01/14 03:41:50;;;;;;;0.80;0.50;;;4.00;99.90;;;;;;5073570;28;20493;-58
2021/01/14 03:44:16;;;;;;;0.93;0.40;;;4.10;99.90;;;;;;5072929;28;20712;-57
2021/01/14 03:46:45;;;;;;;0.68;0.50;;;4.10;99.90;;;;;;5072819;28;20422;-58
2021/01/14 03:49:12;;;;;;;0.57;0.30;;;3.90;99.90;;;;;;5072625;28;20435;-58
2021/01/14 03:51:38;;;;;;;0.80;0.40;;;3.80;99.90;;;;;;5072654;28;20486;-58
2021/01/14 03:54:05;;;;;;;0.60;0.40;;;3.80;99.90;;;;;;5072192;28;20823;-57
2021/01/14 03:56:36;;;;;;;0.60;0.40;;;3.90;99.90;;;;;;5072701;28;20423;-58
2021/01/14 03:59:03;;;;;;;0.60;0.40;;;4.00;99.90;;;;;;5071935;28;20431;-58
2021/01/14 04:01:29;;;;;;;0.80;0.40;;;4.00;99.90;;;;;;5072745;28;20555;-58
2021/01/14 04:03:56;;;;;;;0.70;0.40;;;4.00;99.90;;;;;;5072276;28;20429;-56
2021/01/14 04:06:30;;;;;;;0.95;0.40;;;3.90;99.90;;;;;;5072466;28;20484;-58
2021/01/14 04:08:57;;;;;;;0.75;0.50;;;3.90;99.90;;;;;;5072803;28;20419;-58
2021/01/14 04:11:25;;;;;;;0.80;0.40;;;3.80;99.90;;;;;;5072676;28;20560;-58
2021/01/14 04:13:51;;;;;;;0.90;0.40;;;3.80;99.90;;;;;;5071819;28;20842;-58
2021/01/14 04:16:17;;;;;;;0.90;0.40;;;3.70;99.90;;;;;;5071790;28;20424;-58
2021/01/14 04:18:44;;;;;;;0.70;0.47;;;3.70;99.90;;;;;;5070511;28;20431;-59
2021/01/14 04:21:13;;;;;;;1.10;0.50;;;3.50;99.90;;;;;;5072406;28;20427;-58
2021/01/14 04:23:39;;;;;;;0.70;0.40;;;3.50;99.90;;;;;;5071991;28;20496;-58
2021/01/14 04:26:05;;;;;;;0.80;0.50;;;3.40;99.90;;;;;;5072017;28;20704;-58
2021/01/14 04:28:32;;;;;;;0.65;0.40;;;3.40;99.90;;;;;;5071093;28;20492;-58
2021/01/14 04:30:59;;;;;;;1.27;0.50;;;3.40;99.90;;;;;;5070440;28;20424;-58
2021/01/14 04:33:25;;;;;;;0.95;0.50;;;3.40;99.90;;;;;;5069628;28;20423;-58
2021/01/14 04:35:53;;;;;;;1.02;0.50;;;3.40;99.90;;;;;;5072931;28;20488;-57
2021/01/14 04:38:20;;;;;;;1.60;0.50;;;3.40;99.90;;;;;;5073946;28;20418;-57
2021/01/14 04:40:54;;;;;;;0.82;0.50;;;3.30;99.90;;;;;;5074584;28;20435;-57
2021/01/14 04:43:22;;;;;;;0.80;0.40;;;3.30;99.90;;;;;;5074428;28;20749;-57
2021/01/14 04:45:53;;;;;;;1.00;0.50;;;3.20;99.90;;;;;;5075115;28;20438;-58
2021/01/14 04:48:20;;;;;;;0.98;0.50;;;3.20;99.90;;;;;;5074457;28;20838;-57
2021/01/14 04:50:48;;;;;;;0.90;0.60;;;3.30;99.90;;;;;;5073797;28;20430;-58
2021/01/14 04:53:18;;;;;;;1.40;0.60;;;3.30;99.90;;;;;;5074350;28;20706;-57
2021/01/14 04:55:46;;;;;;;1.30;0.60;;;3.40;99.90;;;;;;5074665;28;20652;-57
2021/01/14 04:58:16;;;;;;;1.25;0.60;;;3.30;99.90;;;;;;5074494;28;20498;-58
2021/01/14 05:00:47;;;;;;;1.05;0.60;;;3.20;99.90;;;;;;5073763;28;20947;-57
2021/01/14 05:03:21;;;;;;;1.53;0.50;;;3.30;99.90;;;;;;5075203;28;20427;-52
2021/01/14 05:05:48;;;;;;;0.83;0.50;;;3.10;99.90;;;;;;5075913;28;20434;-58
2021/01/14 05:08:16;;;;;;;1.10;0.60;;;3.30;99.90;;;;;;5074937;28;20778;-57
2021/01/14 05:10:43;;;;;;;1.75;0.60;;;3.20;99.90;;;;;;5074661;28;20724;-58
2021/01/14 05:13:10;;;;;;;0.80;0.50;;;3.20;99.90;;;;;;5075940;28;20703;-57
2021/01/14 05:15:38;;;;;;;1.00;0.60;;;3.30;99.90;;;;;;5074500;28;20433;-51
2021/01/14 05:18:05;;;;;;;1.17;0.50;;;3.30;99.90;;;;;;5055401;28;20435;-56
2021/01/14 05:20:32;;;;;;;0.85;0.50;;;3.40;99.90;;;;;;5055086;28;20437;-56
2021/01/14 05:23:01;;;;;;;1.10;0.60;;;3.30;99.90;;;;;;5073654;28;20755;-56
2021/01/14 05:25:28;;;;;;;0.90;0.50;;;3.30;99.90;;;;;;5074059;28;20649;-57
2021/01/14 05:27:55;;;;;;;0.80;0.50;;;3.20;99.90;;;;;;5075461;28;20711;-55
2021/01/14 05:30:25;;;;;;;0.90;0.55;;;3.10;99.90;;;;;;5076572;28;20435;-57
2021/01/14 05:32:51;;;;;;;1.30;0.50;;;3.00;99.90;;;;;;5075929;28;20431;-56
2021/01/14 05:35:28;;;;;;;0.80;0.50;;;3.10;99.90;;;;;;5076685;28;20428;-56
2021/01/14 05:38:00;;;;;;;0.90;0.50;;;3.10;99.90;;;;;;5075537;28;20736;-57
2021/01/14 05:40:28;;;;;;;1.33;0.50;;;3.30;99.90;;;;;;5076278;28;20506;-57
2021/01/14 05:43:05;;;;;;;1.38;0.50;;;3.30;99.90;;;;;;5075999;28;20717;-57
2021/01/14 05:45:32;;;;;;;0.70;0.50;;;3.20;99.90;;;;;;5056514;28;20459;-57
2021/01/14 05:48:09;;;;;;;1.17;0.50;;;3.30;99.90;;;;;;5072515;28;20442;-57
2021/01/14 05:50:43;;;;;;;0.90;0.50;;;3.40;99.90;;;;;;5076012;28;20746;-56
2021/01/14 05:53:14;;;;;;;1.00;0.60;;;3.30;99.90;;;;;;5075882;28;20427;-55
2021/01/14 05:55:43;;;;;;;1.10;0.50;;;3.40;99.90;;;;;;5074577;28;20433;-57
2021/01/14 05:58:19;;;;;;;1.00;0.60;;;3.30;99.90;;;;;;5071534;28;20431;-55
2021/01/14 06:00:46;;;;;;;0.90;0.60;;;3.30;99.90;;;;;;5072768;28;20442;-56
2021/01/14 06:03:26;;;;;;;0.90;0.60;;;3.30;99.90;;;;;;5072086;28;20427;-55
2021/01/14 06:05:53;;;;;;;0.90;0.60;;;3.30;99.90;;;;;;5075093;28;20439;-57
2021/01/14 06:08:23;;;;;;;1.20;0.60;;;3.40;99.90;;;;;;5073964;28;20496;-56
2021/01/14 06:10:50;;;;;;;1.10;0.50;;;3.40;99.90;;;;;;5074524;28;20423;-53
2021/01/14 06:13:16;;;;;;;2.70;0.60;;;3.30;99.90;;;;;;5074907;28;20428;-57
2021/01/14 06:15:43;;;;;;;2.60;0.70;;;3.30;99.90;;;;;;5075918;28;20427;-56
2021/01/14 06:18:11;;;;;;;2.47;0.70;;;3.30;99.90;;;;;;5075134;28;20480;-57
2021/01/14 06:20:51;;;;;;;0.90;0.50;;;3.30;99.90;;;;;;5075781;28;20432;-55
2021/01/14 06:23:19;;;;;;;0.90;0.60;;;3.20;99.90;;;;;;5075613;28;20711;-53
2021/01/14 06:25:49;;;;;;;0.93;0.60;;;3.30;99.90;;;;;;5075788;28;20888;-55
2021/01/14 06:28:18;;;;;;;1.10;0.70;;;3.30;99.90;;;;;;5073420;28;20515;-54
2021/01/14 06:30:58;;;;;;;0.90;0.60;;;3.30;99.90;;;;;;5075773;28;20434;-56
2021/01/14 06:33:25;;;;;;;1.10;0.60;;;3.30;99.90;;;;;;5073464;28;20423;-51
2021/01/14 06:36:02;;;;;;;1.20;0.60;;;3.20;99.90;;;;;;5073569;28;20435;-55
2021/01/14 06:38:44;;;;;;;1.10;0.60;;;3.20;99.90;;;;;;5073025;28;20818;-56
2021/01/14 06:41:16;;;;;;;1.20;0.70;;;3.30;99.90;;;;;;5072088;28;20470;-56
2021/01/14 06:43:44;;;;;;;1.10;0.63;;;3.30;99.90;;;;;;5072931;28;20423;-56
2021/01/14 06:46:19;;;;;;;1.00;0.70;;;3.30;99.90;;;;;;5072764;28;20419;-55
2021/01/14 06:49:08;;;;;;;1.98;0.60;;;3.30;99.90;;;;;;5074072;28;20691;-57
2021/01/14 06:51:55;;;;;;;1.30;0.70;;;3.30;99.90;;;;;;5072319;28;20416;-56
2021/01/14 06:54:22;;;;;;;1.50;0.60;;;3.40;99.90;;;;;;5073944;28;20500;-51
2021/01/14 06:56:59;;;;;;;1.05;0.65;;;3.30;99.90;;;;;;5074987;28;20423;-56
2021/01/14 06:59:26;;;;;;;1.35;0.70;;;3.10;99.90;;;;;;5072832;28;20484;-55
2021/01/14 07:02:21;;;;;;;1.20;0.75;;;3.00;99.90;;;;;;5073044;28;20463;-58
2021/01/14 07:04:53;;;;;;;1.80;0.80;;;3.00;99.90;;;;;;5045949;28;20438;-56
2021/01/14 07:07:31;;;;;;;1.80;0.80;;;3.20;99.90;;;;;;5072934;28;20471;-52
2021/01/14 07:10:08;;;;;;;1.10;0.70;;;3.20;99.90;;;;;;5072112;28;20435;-50
2021/01/14 07:12:36;;;;;;;1.20;0.70;;;3.30;99.90;;;;;;5052212;28;20460;-53
2021/01/14 07:15:06;;;;;;;2.10;0.70;;;3.40;99.90;;;;;;5053635;28;20573;-55
2021/01/14 07:17:33;;;;;;;1.33;0.80;;;3.30;99.90;;;;;;5071477;28;20426;-53
2021/01/14 07:20:02;;;;;;;1.40;0.80;;;3.10;99.90;;;;;;5073159;28;20479;-51
2021/01/14 07:22:31;;;;;;;1.30;0.80;;;3.10;99.90;;;;;;5071044;28;20414;-54
2021/01/14 07:25:01;;;;;;;1.35;0.90;;;3.10;99.90;;;;;;5070587;28;20435;-51
2021/01/14 07:27:28;;;;;;;2.00;0.80;;;3.10;99.90;;;;;;5057385;28;20526;-50
2021/01/14 07:29:57;;;;;;;1.67;0.80;;;3.20;99.90;;;;;;5071167;28;20904;-55
2021/01/14 07:32:51;;;;;;;1.10;0.80;;;3.20;99.90;;;;;;5075691;28;20509;-52
2021/01/14 07:35:37;;;;;;;1.20;0.80;;;3.20;99.90;;;;;;5060573;28;20431;-50
2021/01/14 07:38:04;;;;;;;1.73;0.70;;;3.20;99.90;;;;;;5069248;28;20718;-53
2021/01/14 07:40:31;;;;;;;1.50;0.70;;;3.40;99.90;;;;;;5072005;28;20565;-52
2021/01/14 07:42:58;;;;;;;1.98;0.90;;;3.60;99.90;;;;;;5071987;28;20710;-58
2021/01/14 07:45:26;;;;;;;1.10;0.80;;;3.80;99.90;;;;;;5070941;28;20453;-57
2021/01/14 07:47:52;;;;;;;1.00;0.70;;;3.70;99.90;;;;;;5072421;28;20423;-58
2021/01/14 07:50:20;;;;;;;1.10;0.80;;;3.60;99.90;;;;;;5075951;28;20876;-58
2021/01/14 07:52:47;;;;;;;1.50;0.90;;;3.50;99.90;;;;;;5081145;28;20424;-57
2021/01/14 07:55:25;;;;;;;1.15;0.70;;;3.50;99.90;;;;;;5091068;28;20433;-58
2021/01/14 07:58:03;;;;;;;1.52;0.70;;;3.70;99.90;;;;;;5090802;28;20418;-59
2021/01/14 08:00:31;;;;;;;1.30;0.80;;;3.60;99.90;;;;;;5091690;28;20443;-58
2021/01/14 08:03:11;;;;;;;1.73;0.80;;;3.60;99.90;;;;;;5092071;28;20410;-58
2021/01/14 08:05:38;;;;;;;1.60;0.70;;;3.70;99.90;;;;;;5052629;28;20429;-58
2021/01/14 08:08:27;;;;;;;1.40;0.80;;;3.80;99.90;;;;;;5072645;28;20506;-58
2021/01/14 08:11:15;;;;;;;1.20;0.80;;;3.70;99.90;;;;;;5067009;28;20423;-58
2021/01/14 08:14:09;;;;;;;2.30;0.80;;;3.70;99.90;;;;;;5089341;28;20426;-57
2021/01/14 08:16:37;;;;;;;2.00;0.70;;;3.50;99.90;;;;;;5093448;28;20410;-58
2021/01/14 08:19:12;;;;;;;1.70;0.80;;;3.60;99.90;;;;;;5092691;28;20747;-57
2021/01/14 08:21:39;;;;;;;1.30;0.73;;;3.70;99.90;;;;;;5091285;28;21220;-57
2021/01/14 08:24:06;;;;;;;1.38;0.80;;;3.70;99.90;;;;;;5091414;28;20430;-58
2021/01/14 08:26:50;;;;;;;1.90;0.70;;;3.90;99.90;;;;;;5091622;28;20422;-58
2021/01/14 08:29:32;;;;;;;1.20;0.90;;;3.70;99.90;;;;;;5090433;28;20422;-58
2021/01/14 08:31:59;;;;;;;1.20;0.80;;;3.60;99.90;;;;;;5075371;28;20886;-58
2021/01/14 08:34:26;;;;;;;1.30;0.70;;;3.60;99.90;;;;;;5068980;28;20431;-58
2021/01/14 08:36:57;;;;;;;2.30;1.10;;;3.70;99.90;;;;;;5070119;28;20637;-58
2021/01/14 08:39:25;;;;;;;2.50;0.80;;;4.20;99.90;;;;;;5074977;28;20437;-55
2021/01/14 08:41:52;;;;;;;1.63;0.70;;;4.00;99.90;;;;;;5069306;28;20431;-57
2021/01/14 08:44:23;;;;;;;2.08;0.90;;;3.70;99.90;;;;;;5080329;28;20861;-57
2021/01/14 08:46:52;;;;;;;1.20;0.90;;;3.70;99.90;;;;;;5076795;28;20430;-55
2021/01/14 08:49:19;;;;;;;2.50;0.75;;;3.70;99.90;;;;;;5075499;28;20436;-57
2021/01/14 08:51:46;;;;;;;1.60;0.65;;;3.90;99.90;;;;;;5085751;28;20422;-56
2021/01/14 08:54:12;;;;;;;1.20;0.70;;;4.10;99.90;;;;;;5071938;28;20434;-57
2021/01/14 08:56:39;;;;;;;1.30;0.70;;;4.10;99.90;;;;;;5077305;28;20838;-55
2021/01/14 08:59:11;;;;;;;1.60;0.70;;;4.10;99.90;;;;;;5071295;28;20847;-56
2021/01/14 09:01:39;;;;;;;1.23;0.70;;;4.00;99.90;;;;;;5073901;28;20873;-56
2021/01/14 09:04:06;;;;;;;1.10;0.70;;;4.40;99.90;;;;;;5068342;28;20738;-52
2021/01/14 09:06:37;;;;;;;1.20;0.70;;;4.50;99.90;;;;;;5083560;28;20857;-52
2021/01/14 09:09:08;;;;;;;2.00;0.60;;;4.90;99.90;;;;;;5082450;28;20525;-53
2021/01/14 09:11:35;;;;;;;1.42;0.70;;;5.00;99.90;;;;;;5073477;28;20503;-53
2021/01/14 09:14:07;;;;;;;1.70;0.80;;;5.10;99.90;;;;;;5069479;28;20844;-49
2021/01/14 09:16:34;;;;;;;2.20;0.80;;;5.00;99.90;;;;;;5069205;28;20473;-54
2021/01/14 09:19:00;;;;;;;1.23;0.70;;;4.60;99.90;;;;;;5069995;28;20708;-53
2021/01/14 09:21:33;;;;;;;1.48;0.80;;;4.70;99.90;;;;;;5070200;28;20431;-53
2021/01/14 09:24:07;;;;;;;2.15;0.70;;;4.60;99.90;;;;;;5092333;28;20487;-54
2021/01/14 09:26:33;;;;;;;1.00;0.70;;;4.60;99.90;;;;;;5093710;28;20670;-52
2021/01/14 09:28:59;;;;;;;1.00;0.70;;;4.70;99.90;;;;;;5093411;28;20837;-48
2021/01/14 09:31:29;;;;;;;1.17;0.80;;;4.80;99.90;;;;;;5093262;28;21067;-54
2021/01/14 09:33:58;;;;;;;1.90;0.70;;;4.80;99.90;;;;;;5092880;28;20418;-53
2021/01/14 09:36:24;;;;;;;1.30;0.80;;;4.70;99.90;;;;;;5092565;28;20421;-51
2021/01/14 09:38:52;;;;;;;2.00;0.80;;;4.70;99.90;;;;;;5093642;28;20436;-54
2021/01/14 09:41:24;;;;;;;1.35;0.80;;;4.70;99.90;;;;;;5092621;28;20431;-54
2021/01/14 09:43:52;;;;;;;1.00;0.70;;;4.60;99.90;;;;;;5093804;28;20417;-53
2021/01/14 09:46:20;;;;;;;1.77;0.80;;;4.60;99.90;;;;;;5083156;28;20423;-49
2021/01/14 09:48:47;;;;;;;1.30;0.70;;;4.50;99.90;;;;;;5073840;28;20423;-53
2021/01/14 09:51:14;;;;;;;1.27;0.75;;;4.70;99.90;;;;;;5074971;28;20408;-52
2021/01/14 09:53:45;;;;;;;2.80;0.80;;;4.90;99.90;;;;;;5073802;28;20423;-54
2021/01/14 09:56:20;;;;;;;1.08;0.70;;;4.50;99.90;;;;;;5091811;28;20725;-55
2021/01/14 09:58:51;;;;;;;1.40;0.80;;;4.70;99.90;;;;;;5092484;28;20410;-54
2021/01/14 10:01:20;;;;;;;1.58;0.70;;;4.60;99.90;;;;;;5053137;28;20437;-52
2021/01/14 10:03:51;;;;;;;1.20;0.70;;;4.70;99.90;;;;;;5053769;28;20628;-53
2021/01/14 10:06:20;;;;;;;2.40;0.80;;;4.60;99.90;;;;;;5052483;28;20425;-54
2021/01/14 10:08:49;;;;;;;1.83;0.70;;;4.50;99.90;;;;;;5053301;28;20848;-54
2021/01/14 10:11:20;;;;;;;1.40;0.80;;;4.40;99.90;;;;;;5053288;28;20413;-53
2021/01/14 10:13:50;;;;;;;1.20;0.60;;;4.30;99.90;;;;;;5054148;28;20696;-50
2021/01/14 10:16:19;;;;;;;1.00;0.60;;;4.30;99.90;;;;;;5054384;28;20809;-54
2021/01/14 10:18:46;;;;;;;4.82;1.30;;;4.10;99.90;;;;;;5051941;28;20428;-53
2021/01/14 10:21:14;;;;;;;1.50;0.70;;;4.00;99.90;;;;;;5052104;28;20433;-55
2021/01/14 10:23:40;;;;;;;2.20;0.80;;;4.20;99.90;;;;;;5053144;28;20432;-52
2021/01/14 10:26:07;;;;;;;2.87;0.60;;;4.30;99.90;;;;;;5052517;28;20528;-54
2021/01/14 10:28:44;;;;;;;1.10;0.70;;;4.30;99.90;;;;;;5054300;28;20731;-54
2021/01/14 10:31:10;;;;;;;1.50;0.70;;;4.00;99.90;;;;;;5050601;28;20417;-51
2021/01/14 10:33:37;;;;;;;1.90;0.60;;;3.90;99.90;;;;;;5051712;28;20616;-55
2021/01/14 10:36:03;;;;;;;1.20;0.60;;;4.10;99.90;;;;;;5071385;28;20625;-51
2021/01/14 10:38:30;;;;;;;1.80;0.60;;;4.40;99.90;;;;;;5072480;28;20429;-57
2021/01/14 10:40:57;;;;;;;1.10;0.60;;;4.50;99.90;;;;;;5071418;28;20498;-57
2021/01/14 10:43:30;;;;;;;1.80;0.60;;;4.90;99.90;;;;;;5071626;28;20427;-57
2021/01/14 10:45:57;;;;;;;0.80;0.60;;;5.10;99.90;;;;;;5072827;28;20416;-57
2021/01/14 10:48:24;;;;;;;1.15;0.60;;;5.40;99.90;;;;;;5071597;28;20438;-57
2021/01/14 10:50:52;;;;;;;1.20;0.70;;;5.40;99.90;;;;;;5073409;28;20492;-58
2021/01/14 10:53:28;;;;;;;0.90;0.57;;;5.40;99.90;;;;;;5091781;22;20454;-57
2021/01/14 10:56:06;;;;;;;1.02;0.60;;;5.50;99.90;;;;;;5091201;28;20792;-57
2021/01/14 10:58:32;;;;;;;1.20;0.60;;;5.10;99.90;;;;;;5086114;28;20534;-52
2021/01/14 11:01:00;;;;;;;1.30;0.70;;;5.10;99.90;;;;;;5089663;28;20426;-57
2021/01/14 11:03:27;;;;;;;0.90;0.50;;;5.10;99.90;;;;;;5078580;28;20427;-57
2021/01/14 11:05:55;;;;;;;1.77;0.70;;;5.40;99.90;;;;;;5086450;28;20505;-55
2021/01/14 11:08:22;;;;;;;1.00;0.60;;;5.40;99.90;;;;;;5097207;28;20471;-57
2021/01/14 11:11:01;;;;;;;1.27;0.60;;;5.20;99.90;;;;;;5102219;28;20422;-58
2021/01/14 11:13:37;;;;;;;1.50;0.70;;;5.20;99.90;;;;;;5071856;28;20842;-55
2021/01/14 11:16:05;;;;;;;2.10;0.80;;;5.30;99.90;;;;;;5071344;28;20473;-57
2021/01/14 11:18:34;;;;;;;1.40;0.80;;;4.80;99.90;;;;;;5087587;28;20463;-55
2021/01/14 11:21:01;;;;;;;2.10;0.80;;;4.20;99.90;;;;;;5083944;28;20436;-55
2021/01/14 11:23:27;;;;;;;1.90;0.80;;;3.90;99.90;;;;;;5084844;28;20437;-55
2021/01/14 11:25:53;;;;;;;1.60;0.80;;;3.70;99.90;;;;;;5085256;28;20417;-56
2021/01/14 11:28:19;;;;;;;1.98;0.80;;;3.50;99.90;;;;;;5078411;28;20425;-57
2021/01/14 11:30:46;;;;;;;1.77;0.70;;;3.80;99.90;;;;;;5087245;28;20426;-57
2021/01/14 11:33:13;;;;;;;2.00;0.80;;;3.60;99.90;;;;;;5083740;28;20483;-57
2021/01/14 11:35:39;;;;;;;2.13;0.85;;;3.60;99.90;;;;;;5092617;28;20846;-55
2021/01/14 11:38:05;;;;;;;1.95;0.80;;;3.70;99.90;;;;;;5092623;28;20557;-58
2021/01/14 11:40:31;;;;;;;1.50;0.80;;;3.60;99.90;;;;;;5092750;28;20479;-58
2021/01/14 11:42:58;;;;;;;2.00;0.80;;;3.60;99.90;;;;;;5093061;28;20741;-58
2021/01/14 11:45:24;;;;;;;1.80;0.85;;;3.70;99.90;;;;;;5091945;28;20418;-58
2021/01/14 11:47:50;;;;;;;1.35;0.80;;;3.70;99.90;;;;;;5091171;28;20421;-59
2021/01/14 11:50:18;;;;;;;1.00;0.70;;;3.90;99.90;;;;;;5091586;28;20879;-58
2021/01/14 11:52:44;;;;;;;1.27;0.80;;;3.90;99.90;;;;;;5092224;28;20754;-58
2021/01/14 11:55:11;;;;;;;1.30;0.80;;;4.00;99.90;;;;;;5092465;28;20758;-59
2021/01/14 11:57:37;;;;;;;1.70;0.95;;;4.10;99.90;;;;;;5092577;28;20418;-57
2021/01/14 12:00:07;;;;;;;2.70;0.80;;;4.20;99.90;;;;;;5092752;28;20422;-53
2021/01/14 12:02:34;;;;;;;1.20;0.80;;;3.90;99.90;;;;;;5091497;28;20433;-53
2021/01/14 12:05:00;;;;;;;1.70;0.70;;;3.80;99.90;;;;;;5090948;28;20706;-58
2021/01/14 12:07:27;;;;;;;2.00;0.75;;;3.80;99.90;;;;;;5089296;28;20712;-55
2021/01/14 12:09:53;;;;;;;6.60;3.50;;;3.90;99.90;;;;;;5091527;28;20432;-56
2021/01/14 12:12:20;;;;;;;1.20;0.80;;;4.00;99.90;;;;;;5092026;28;20418;-54
2021/01/14 12:14:47;;;;;;;1.00;0.70;;;4.20;99.90;;;;;;5090983;28;20422;-56
2021/01/14 12:17:14;;;;;;;1.20;0.70;;;4.30;99.90;;;;;;5081098;28;20820;-54
2021/01/14 12:19:42;;;;;;;0.93;0.70;;;4.10;99.90;;;;;;5082021;28;20435;-55
2021/01/14 12:22:10;;;;;;;1.02;0.70;;;3.90;99.90;;;;;;5085073;28;21037;-57
2021/01/14 12:24:37;;;;;;;1.95;0.63;;;3.60;99.90;;;;;;5093715;28;21057;-55
2021/01/14 12:27:04;;;;;;;2.40;0.80;;;3.60;99.90;;;;;;5096214;28;20755;-55
2021/01/14 12:29:30;;;;;;;1.20;0.70;;;3.80;99.90;;;;;;5070529;28;20842;-55
2021/01/14 12:31:57;;;;;;;1.73;0.70;;;3.70;99.90;;;;;;5074271;28;20488;-55
2021/01/14 12:34:23;;;;;;;2.08;0.80;;;3.80;99.90;;;;;;5077613;28;20900;-56
2021/01/14 12:36:53;;;;;;;1.30;0.80;;;3.90;99.90;;;;;;5091465;28;20425;-56
2021/01/14 12:39:20;;;;;;;1.80;0.70;;;4.10;99.90;;;;;;5086497;28;20426;-57
2021/01/14 12:41:47;;;;;;;1.70;0.80;;;3.90;99.90;;;;;;5081410;28;20425;-58
2021/01/14 12:44:14;;;;;;;1.20;0.80;;;3.90;99.90;;;;;;5088325;28;20461;-57
2021/01/14 12:46:42;;;;;;;2.70;0.70;;;4.00;99.90;;;;;;5076713;28;20428;-58
2021/01/14 12:49:09;;;;;;;2.50;0.80;;;4.10;99.90;;;;;;5090330;28;20459;-58
2021/01/14 12:51:37;;;;;;;1.60;0.90;;;4.10;99.90;;;;;;5087219;28;20446;-58
2021/01/14 12:54:04;;;;;;;1.30;0.70;;;4.20;99.90;;;;;;5094202;28;20499;-57
2021/01/14 12:56:31;;;;;;;1.10;0.70;;;4.00;99.90;;;;;;5109635;28;20415;-58
2021/01/14 12:59:00;;;;;;;1.58;0.77;;;4.10;99.90;;;;;;5074497;28;20443;-57
2021/01/14 13:01:30;;;;;;;1.33;0.80;;;4.00;99.90;;;;;;5075571;28;20443;-55
2021/01/14 13:03:57;;;;;;;1.40;0.60;;;3.50;99.90;;;;;;5084772;28;20845;-54
2021/01/14 13:06:25;;;;;;;1.00;0.63;;;3.50;99.90;;;;;;5089998;28;20815;-54
2021/01/14 13:08:51;;;;;;;1.45;0.70;;;3.90;99.90;;;;;;5094343;28;20979;-52